Terminal Aerodrome Forecast
Issued by NWS Quad Cities IA IL

Home | Current Version | Previous Version | Text Only | Print | Product List | Glossary On
Versions: 1 2 3 4 5 6 7 8 9 10 11 12 13 14 15 16 17 18 19 20 21 22 23 24 25 26 27
197
FTUS43 KDVN 241334 AAA
TAFMLI
TAF AMD
KMLI 241334Z 2414/2512 07010KT 2SM BR OVC004
     FM241700 32012KT 5SM BR VCSH OVC007
     FM250000 30012G20KT 2SM -SN BR OVC008
     FM250800 30015G25KT 5SM -SN BR OVC015=

USA.gov is the U.S. government's official web portal to all federal, state and local government web resources and services.